Time;durP1;ratioP1;P1;durP2;ratioP2;P2;SDS_P1;SDS_P2;PMS_P1;PMS_P2;Temp;Humidity;BMP_temperature;BMP_pressure;BME280_temperature;BME280_humidity;BME280_pressure;Samples;Min_cycle;Max_cycle;Signal;HPM_P1;HPM_P2
2023/07/26 00:01:31;;;;;;;3.83;1.98;;;;;;;;;;5071766;28;20024;-75
2023/07/26 00:03:58;;;;;;;0.20;0.20;;;;;;;;;;5071688;28;20029;-75
2023/07/26 00:06:24;;;;;;;4.75;1.75;;;;;;;;;;5071874;28;20151;-74
2023/07/26 00:08:50;;;;;;;0.55;0.55;;;;;;;;;;5053840;28;20415;-75
2023/07/26 00:11:15;;;;;;;1.98;0.45;;;;;;;;;;5071781;28;20047;-75
2023/07/26 00:13:40;;;;;;;1.45;0.73;;;;;;;;;;5073959;28;20078;-74
2023/07/26 00:16:06;;;;;;;2.20;0.45;;;;;;;;;;5075193;28;20097;-74
2023/07/26 00:18:31;;;;;;;2.75;0.60;;;;;;;;;;5075254;28;20044;-73
2023/07/26 00:20:57;;;;;;;3.45;1.52;;;;;;;;;;5057264;28;20039;-74
2023/07/26 00:23:22;;;;;;;4.35;0.82;;;;;;;;;;5057243;28;20198;-74
2023/07/26 00:25:47;;;;;;;3.17;1.60;;;;;;;;;;5074948;28;20463;-74
2023/07/26 00:28:13;;;;;;;3.00;0.82;;;;;;;;;;5074656;28;20044;-74
2023/07/26 00:30:38;;;;;;;1.35;0.40;;;;;;;;;;5074770;28;20444;-73
2023/07/26 00:33:04;;;;;;;0.50;0.30;;;;;;;;;;5057122;28;20063;-73
2023/07/26 00:35:35;;;;;;;0.13;0.13;;;;;;;;;;5074878;28;20068;-73
2023/07/26 00:38:00;;;;;;;1.08;0.77;;;;;;;;;;5057099;28;20039;-73
2023/07/26 00:40:26;;;;;;;2.78;1.13;;;;;;;;;;5074780;28;20029;-73
2023/07/26 00:42:51;;;;;;;2.05;1.20;;;;;;;;;;5074582;28;20029;-76
2023/07/26 00:45:17;;;;;;;1.98;1.10;;;;;;;;;;5056582;28;20092;-76
2023/07/26 00:47:43;;;;;;;1.20;0.70;;;;;;;;;;5074759;28;20029;-76
2023/07/26 00:50:11;;;;;;;1.17;0.73;;;;;;;;;;5056596;28;20031;-76
2023/07/26 00:52:37;;;;;;;1.65;0.80;;;;;;;;;;5074481;28;20099;-75
2023/07/26 00:55:03;;;;;;;1.65;0.45;;;;;;;;;;5056358;28;20037;-76
2023/07/26 00:57:29;;;;;;;8.80;1.52;;;;;;;;;;5056309;28;20024;-75
2023/07/26 00:59:55;;;;;;;14.52;2.35;;;;;;;;;;5056386;28;20040;-76
2023/07/26 01:02:20;;;;;;;0.45;0.38;;;;;;;;;;5074311;28;20074;-77
2023/07/26 01:04:46;;;;;;;4.60;0.70;;;;;;;;;;5074393;28;20040;-76
2023/07/26 01:07:23;;;;;;;0.80;0.30;;;;;;;;;;5074333;28;20039;-79
2023/07/26 01:09:59;;;;;;;2.35;0.40;;;;;;;;;;5072915;28;20127;-77
2023/07/26 01:12:28;;;;;;;12.77;2.03;;;;;;;;;;5056248;28;20094;-74
2023/07/26 01:14:54;;;;;;;1.33;0.50;;;;;;;;;;5074262;28;20094;-76
2023/07/26 01:17:19;;;;;;;2.78;0.98;;;;;;;;;;5056307;28;20013;-75
2023/07/26 01:19:45;;;;;;;0.57;0.30;;;;;;;;;;5074037;28;20062;-75
2023/07/26 01:22:11;;;;;;;1.10;0.73;;;;;;;;;;5074051;28;20039;-75
2023/07/26 01:24:37;;;;;;;10.43;1.98;;;;;;;;;;5054667;28;20033;-76
2023/07/26 01:27:03;;;;;;;2.35;2.15;;;;;;;;;;5056207;28;20028;-75
2023/07/26 01:29:28;;;;;;;8.50;1.58;;;;;;;;;;5056058;28;20491;-76
2023/07/26 01:31:54;;;;;;;0.38;0.38;;;;;;;;;;5074061;28;20033;-76
2023/07/26 01:34:19;;;;;;;1.15;0.77;;;;;;;;;;5073874;28;20036;-76
2023/07/26 01:36:45;;;;;;;0.20;0.20;;;;;;;;;;5074137;28;20025;-76
2023/07/26 01:39:11;;;;;;;4.20;1.10;;;;;;;;;;5055765;28;20045;-75
2023/07/26 01:41:38;;;;;;;2.95;0.50;;;;;;;;;;5073923;28;20040;-76
2023/07/26 01:44:04;;;;;;;3.35;1.00;;;;;;;;;;5055875;28;20036;-76
2023/07/26 01:46:54;;;;;;;1.55;0.98;;;;;;;;;;5072880;28;20124;-76
2023/07/26 01:49:21;;;;;;;0.20;0.20;;;;;;;;;;5073491;28;20380;-76
2023/07/26 01:51:46;;;;;;;6.13;1.23;;;;;;;;;;5073449;28;20187;-75
2023/07/26 01:54:12;;;;;;;1.80;0.65;;;;;;;;;;5072152;28;20127;-76
2023/07/26 01:56:37;;;;;;;4.20;1.15;;;;;;;;;;5073585;28;20016;-75
2023/07/26 01:59:03;;;;;;;19.48;1.77;;;;;;;;;;5055644;28;20047;-76
2023/07/26 02:01:28;;;;;;;1.55;0.60;;;;;;;;;;5072365;28;20021;-75
2023/07/26 02:03:54;;;;;;;5.05;1.58;;;;;;;;;;5072438;28;20450;-76
2023/07/26 02:06:19;;;;;;;1.52;0.68;;;;;;;;;;5072111;28;20472;-75
2023/07/26 02:08:45;;;;;;;0.43;0.28;;;;;;;;;;5054598;28;20404;-76
2023/07/26 02:11:10;;;;;;;2.50;0.90;;;;;;;;;;5074135;28;20028;-76
2023/07/26 02:13:35;;;;;;;0.88;0.63;;;;;;;;;;5093535;28;20028;-76
2023/07/26 02:16:01;;;;;;;2.72;0.55;;;;;;;;;;5075159;28;20510;-76
2023/07/26 02:18:31;;;;;;;;;;;;;;;;;;5093776;28;20039;-76
2023/07/26 02:20:58;;;;;;;0.45;0.40;;;;;;;;;;5093209;28;19935;-75
2023/07/26 02:23:24;;;;;;;0.32;0.30;;;;;;;;;;5058426;28;20020;-75
2023/07/26 02:25:49;;;;;;;2.13;0.65;;;;;;;;;;5093583;28;20055;-74
2023/07/26 02:28:15;;;;;;;3.47;1.60;;;;;;;;;;5075247;28;20351;-75
2023/07/26 02:30:41;;;;;;;0.40;0.40;;;;;;;;;;5075353;28;20032;-74
2023/07/26 02:33:06;;;;;;;3.30;0.63;;;;;;;;;;5093024;28;20016;-74
2023/07/26 02:35:31;;;;;;;0.85;0.73;;;;;;;;;;5092795;28;20135;-74
2023/07/26 02:37:57;;;;;;;4.70;1.20;;;;;;;;;;5089951;28;20055;-73
2023/07/26 02:40:23;;;;;;;0.68;0.65;;;;;;;;;;5069935;28;20028;-74
2023/07/26 02:42:49;;;;;;;1.27;0.63;;;;;;;;;;5059129;28;20032;-74
2023/07/26 02:45:14;;;;;;;1.50;0.93;;;;;;;;;;5052720;28;20120;-76
2023/07/26 02:47:40;;;;;;;0.75;0.35;;;;;;;;;;5034799;28;20103;-76
2023/07/26 02:50:05;;;;;;;0.20;0.20;;;;;;;;;;5052640;28;20025;-75
2023/07/26 02:52:32;;;;;;;0.20;0.20;;;;;;;;;;5052348;28;20032;-75
2023/07/26 02:54:58;;;;;;;0.20;0.20;;;;;;;;;;5035002;28;20051;-76
2023/07/26 02:57:24;;;;;;;0.10;0.10;;;;;;;;;;5034486;28;20044;-76
2023/07/26 02:59:49;;;;;;;0.47;0.47;;;;;;;;;;5034938;28;20068;-76
2023/07/26 03:02:15;;;;;;;5.93;1.27;;;;;;;;;;5050549;28;20076;-75
2023/07/26 03:04:40;;;;;;;0.63;0.55;;;;;;;;;;5064794;28;20043;-75
2023/07/26 03:07:06;;;;;;;0.20;0.20;;;;;;;;;;5068495;28;20494;-76
2023/07/26 03:09:31;;;;;;;13.02;3.00;;;;;;;;;;5067974;28;20033;-76
2023/07/26 03:11:57;;;;;;;7.68;1.00;;;;;;;;;;5051004;28;20041;-76
2023/07/26 03:14:23;;;;;;;2.65;1.17;;;;;;;;;;5068154;28;20029;-75
2023/07/26 03:16:48;;;;;;;0.20;0.20;;;;;;;;;;5067514;28;20066;-76
2023/07/26 03:19:14;;;;;;;1.75;0.68;;;;;;;;;;5067172;28;20043;-77
2023/07/26 03:21:39;;;;;;;4.03;0.40;;;;;;;;;;5073658;28;20394;-76
2023/07/26 03:24:05;;;;;;;0.10;0.10;;;;;;;;;;5070454;28;20505;-75
2023/07/26 03:26:30;;;;;;;0.50;0.32;;;;;;;;;;5070482;28;20496;-76
2023/07/26 03:28:56;;;;;;;0.30;0.25;;;;;;;;;;5088377;28;20451;-75
2023/07/26 03:31:21;;;;;;;0.43;0.30;;;;;;;;;;5085808;28;20119;-76
2023/07/26 03:33:48;;;;;;;5.82;1.20;;;;;;;;;;5065149;28;20029;-74
2023/07/26 03:36:14;;;;;;;0.25;0.25;;;;;;;;;;5060542;28;20093;-75
2023/07/26 03:38:39;;;;;;;2.45;0.57;;;;;;;;;;5088371;28;20032;-74
2023/07/26 03:41:05;;;;;;;0.40;0.40;;;;;;;;;;5082070;28;20031;-75
2023/07/26 03:43:30;;;;;;;0.47;0.47;;;;;;;;;;5085301;28;20332;-74
2023/07/26 03:45:56;;;;;;;1.48;0.30;;;;;;;;;;5080252;28;20483;-76
2023/07/26 03:48:22;;;;;;;0.20;0.20;;;;;;;;;;5069407;28;20384;-75
2023/07/26 03:50:49;;;;;;;0.28;0.28;;;;;;;;;;5071193;28;20507;-74
2023/07/26 03:53:14;;;;;;;0.20;0.20;;;;;;;;;;5070981;28;20064;-74
2023/07/26 03:55:40;;;;;;;0.20;0.20;;;;;;;;;;5071423;28;20933;-74
2023/07/26 03:58:05;;;;;;;0.20;0.20;;;;;;;;;;5066001;28;20040;-74
2023/07/26 04:00:31;;;;;;;0.20;0.20;;;;;;;;;;5091554;28;20032;-74
2023/07/26 04:02:56;;;;;;;0.20;0.20;;;;;;;;;;5091154;28;20067;-75
2023/07/26 04:05:21;;;;;;;0.20;0.20;;;;;;;;;;5075805;28;20024;-75
2023/07/26 04:07:50;;;;;;;0.20;0.20;;;;;;;;;;5062969;28;20024;-76
2023/07/26 04:10:15;;;;;;;0.10;0.10;;;;;;;;;;5052638;28;20452;-75
2023/07/26 04:12:41;;;;;;;0.30;0.30;;;;;;;;;;5091272;28;20038;-74
2023/07/26 04:15:06;;;;;;;0.20;0.20;;;;;;;;;;5080634;28;20115;-75
2023/07/26 04:17:32;;;;;;;3.60;0.28;;;;;;;;;;5070846;28;20085;-73
2023/07/26 04:19:57;;;;;;;0.20;0.20;;;;;;;;;;5086506;28;20115;-74
2023/07/26 04:22:23;;;;;;;0.20;0.20;;;;;;;;;;5084708;28;20106;-75
2023/07/26 04:24:48;;;;;;;1.58;1.48;;;;;;;;;;5060822;28;20047;-75
2023/07/26 04:27:14;;;;;;;0.25;0.25;;;;;;;;;;5058818;28;20033;-75
2023/07/26 04:29:40;;;;;;;0.30;0.30;;;;;;;;;;5069463;28;20021;-75
2023/07/26 04:32:05;;;;;;;0.20;0.20;;;;;;;;;;5076888;28;20115;-75
2023/07/26 04:34:31;;;;;;;0.20;0.20;;;;;;;;;;5071757;28;20103;-75
2023/07/26 04:36:56;;;;;;;0.20;0.20;;;;;;;;;;5082348;28;20028;-75
2023/07/26 04:39:21;;;;;;;0.28;0.28;;;;;;;;;;5066004;28;20040;-75
2023/07/26 04:41:47;;;;;;;2.05;0.75;;;;;;;;;;5065894;28;20037;-74
2023/07/26 04:44:12;;;;;;;0.25;0.25;;;;;;;;;;5062919;28;20043;-75
2023/07/26 04:46:38;;;;;;;14.70;1.42;;;;;;;;;;5069078;28;20033;-74
2023/07/26 04:49:03;;;;;;;0.65;0.65;;;;;;;;;;5066292;28;20096;-74
2023/07/26 04:51:29;;;;;;;0.20;0.20;;;;;;;;;;5069058;28;20155;-76
2023/07/26 04:53:54;;;;;;;1.10;0.50;;;;;;;;;;5069534;28;20130;-73
2023/07/26 04:56:25;;;;;;;0.20;0.20;;;;;;;;;;5064978;28;20037;-73
2023/07/26 04:58:51;;;;;;;0.88;0.77;;;;;;;;;;5069884;28;20040;-75
2023/07/26 05:01:16;;;;;;;0.20;0.20;;;;;;;;;;5069433;28;20073;-77
2023/07/26 05:03:42;;;;;;;0.20;0.20;;;;;;;;;;5055888;28;20479;-74
2023/07/26 05:06:07;;;;;;;0.20;0.20;;;;;;;;;;5084628;28;20084;-74
2023/07/26 05:08:33;;;;;;;0.38;0.32;;;;;;;;;;5072384;28;20478;-74
2023/07/26 05:10:59;;;;;;;0.28;0.28;;;;;;;;;;5090363;28;20028;-73
2023/07/26 05:13:25;;;;;;;0.20;0.20;;;;;;;;;;5090624;28;20451;-74
2023/07/26 05:15:51;;;;;;;0.30;0.20;;;;;;;;;;5090331;28;20032;-72
2023/07/26 05:18:16;;;;;;;6.88;1.27;;;;;;;;;;5090568;28;20028;-74
2023/07/26 05:20:42;;;;;;;5.78;0.63;;;;;;;;;;5090363;28;20036;-73
2023/07/26 05:23:08;;;;;;;3.53;0.80;;;;;;;;;;5070953;28;20037;-73
2023/07/26 05:25:33;;;;;;;21.40;1.42;;;;;;;;;;5052133;28;20182;-74
2023/07/26 05:27:59;;;;;;;0.68;0.40;;;;;;;;;;5070386;28;20462;-73
2023/07/26 05:30:24;;;;;;;0.32;0.32;;;;;;;;;;5070153;28;20450;-75
2023/07/26 05:32:50;;;;;;;1.90;0.70;;;;;;;;;;5070018;28;20028;-72
2023/07/26 05:35:15;;;;;;;5.07;0.50;;;;;;;;;;5066964;28;20048;-73
2023/07/26 05:37:41;;;;;;;0.20;0.20;;;;;;;;;;5049706;28;20073;-75
2023/07/26 05:40:06;;;;;;;0.20;0.20;;;;;;;;;;5049737;28;20473;-75
2023/07/26 05:42:32;;;;;;;0.20;0.20;;;;;;;;;;5076382;28;20040;-75
2023/07/26 05:44:58;;;;;;;1.13;0.82;;;;;;;;;;5089193;28;20028;-75
2023/07/26 05:47:23;;;;;;;0.20;0.20;;;;;;;;;;5088916;28;20067;-75
2023/07/26 05:49:49;;;;;;;3.60;1.27;;;;;;;;;;5089414;28;20492;-74
2023/07/26 05:52:14;;;;;;;0.10;0.10;;;;;;;;;;5089125;28;20119;-74
2023/07/26 05:54:40;;;;;;;0.20;0.20;;;;;;;;;;5071393;28;20108;-74
2023/07/26 05:57:06;;;;;;;0.25;0.25;;;;;;;;;;5071279;28;20024;-75
2023/07/26 05:59:31;;;;;;;0.20;0.20;;;;;;;;;;5090008;28;20039;-75
2023/07/26 06:01:58;;;;;;;0.20;0.20;;;;;;;;;;5089691;28;20479;-75
2023/07/26 06:04:24;;;;;;;0.17;0.17;;;;;;;;;;5089634;28;20040;-75
2023/07/26 06:06:49;;;;;;;0.20;0.20;;;;;;;;;;5089014;28;20605;-74
2023/07/26 06:09:15;;;;;;;1.98;0.55;;;;;;;;;;5089256;28;20117;-74
2023/07/26 06:11:42;;;;;;;0.40;0.40;;;;;;;;;;5089237;28;20368;-74
2023/07/26 06:14:07;;;;;;;0.20;0.20;;;;;;;;;;5089335;28;20271;-74
2023/07/26 06:16:33;;;;;;;2.47;0.60;;;;;;;;;;5089017;28;20031;-73
2023/07/26 06:18:58;;;;;;;0.30;0.30;;;;;;;;;;5089393;28;20032;-75
2023/07/26 06:21:24;;;;;;;1.35;0.40;;;;;;;;;;5088975;28;20075;-75
2023/07/26 06:23:50;;;;;;;0.75;0.75;;;;;;;;;;5089213;28;20031;-75
2023/07/26 06:26:15;;;;;;;0.40;0.40;;;;;;;;;;5089747;28;20044;-74
2023/07/26 06:28:41;;;;;;;1.52;0.88;;;;;;;;;;5089290;28;20040;-74
2023/07/26 06:31:06;;;;;;;0.30;0.30;;;;;;;;;;5088911;28;20043;-73
2023/07/26 06:33:32;;;;;;;7.93;0.85;;;;;;;;;;5089095;28;20372;-74
2023/07/26 06:35:58;;;;;;;0.68;0.68;;;;;;;;;;5089082;28;20040;-75
2023/07/26 06:38:23;;;;;;;0.20;0.20;;;;;;;;;;5089455;28;20490;-72
2023/07/26 06:40:49;;;;;;;1.25;0.52;;;;;;;;;;5089050;28;20020;-72
2023/07/26 06:43:14;;;;;;;1.80;0.55;;;;;;;;;;5088821;28;20028;-75
2023/07/26 06:45:50;;;;;;;1.88;1.00;;;;;;;;;;5089506;28;20067;-73
2023/07/26 06:48:16;;;;;;;0.30;0.30;;;;;;;;;;5088867;28;20547;-74
2023/07/26 06:50:41;;;;;;;1.02;0.40;;;;;;;;;;5088691;28;20048;-76
2023/07/26 06:53:08;;;;;;;2.22;0.55;;;;;;;;;;5088643;28;20039;-74
2023/07/26 06:55:34;;;;;;;0.50;0.50;;;;;;;;;;5088639;28;20495;-74
2023/07/26 06:57:59;;;;;;;0.20;0.20;;;;;;;;;;5089027;28;20039;-74
2023/07/26 07:00:25;;;;;;;0.20;0.20;;;;;;;;;;5089104;28;20032;-74
2023/07/26 07:02:54;;;;;;;1.92;0.55;;;;;;;;;;5088839;28;20032;-73
2023/07/26 07:05:20;;;;;;;0.40;0.40;;;;;;;;;;5071986;28;20020;-74
2023/07/26 07:07:45;;;;;;;0.22;0.22;;;;;;;;;;5070677;28;20127;-74
2023/07/26 07:10:11;;;;;;;0.85;0.85;;;;;;;;;;5088522;28;20024;-74
2023/07/26 07:12:36;;;;;;;0.30;0.30;;;;;;;;;;5088406;28;20033;-74
2023/07/26 07:15:02;;;;;;;0.20;0.20;;;;;;;;;;5088112;28;20414;-78
2023/07/26 07:17:28;;;;;;;5.15;1.00;;;;;;;;;;5088391;28;20115;-74
2023/07/26 07:19:53;;;;;;;0.20;0.20;;;;;;;;;;5088530;28;20067;-75
2023/07/26 07:22:19;;;;;;;0.28;0.28;;;;;;;;;;5088791;28;20487;-75
2023/07/26 07:24:44;;;;;;;0.20;0.20;;;;;;;;;;5091915;28;20118;-73
2023/07/26 07:27:10;;;;;;;0.30;0.30;;;;;;;;;;5092146;28;20020;-72
2023/07/26 07:29:35;;;;;;;0.30;0.30;;;;;;;;;;5092239;28;20433;-74
2023/07/26 07:32:01;;;;;;;0.65;0.55;;;;;;;;;;5073889;28;20445;-75
2023/07/26 07:34:26;;;;;;;0.20;0.20;;;;;;;;;;5091981;28;20475;-75
2023/07/26 07:36:52;;;;;;;7.40;1.02;;;;;;;;;;5091654;28;20095;-75
2023/07/26 07:39:17;;;;;;;0.30;0.30;;;;;;;;;;5091657;28;20023;-75
2023/07/26 07:41:43;;;;;;;3.55;0.85;;;;;;;;;;5091965;28;20093;-73
2023/07/26 07:44:08;;;;;;;0.40;0.40;;;;;;;;;;5091822;28;20383;-74
2023/07/26 07:46:33;;;;;;;0.20;0.20;;;;;;;;;;5091779;28;20415;-73
2023/07/26 07:48:59;;;;;;;0.20;0.20;;;;;;;;;;5091472;28;20112;-77
2023/07/26 07:51:25;;;;;;;0.20;0.20;;;;;;;;;;5091707;28;20114;-73
2023/07/26 07:53:50;;;;;;;0.30;0.30;;;;;;;;;;5073567;28;20064;-73
2023/07/26 07:56:16;;;;;;;0.30;0.30;;;;;;;;;;5091299;28;20046;-74
2023/07/26 07:58:41;;;;;;;0.20;0.20;;;;;;;;;;5091616;28;20040;-74
2023/07/26 08:01:07;;;;;;;1.00;0.70;;;;;;;;;;5091757;28;20028;-72
2023/07/26 08:03:33;;;;;;;0.30;0.30;;;;;;;;;;5091868;28;20106;-73
2023/07/26 08:05:58;;;;;;;2.05;1.88;;;;;;;;;;5091436;28;20031;-78
2023/07/26 08:08:24;;;;;;;0.30;0.30;;;;;;;;;;5091433;28;20052;-74
2023/07/26 08:10:50;;;;;;;0.30;0.30;;;;;;;;;;5091356;28;20028;-74
2023/07/26 08:13:15;;;;;;;0.30;0.30;;;;;;;;;;5091556;28;20032;-74
2023/07/26 08:15:41;;;;;;;0.30;0.30;;;;;;;;;;5091222;28;20031;-74
2023/07/26 08:18:06;;;;;;;0.30;0.30;;;;;;;;;;5091165;28;20101;-76
2023/07/26 08:20:32;;;;;;;0.30;0.30;;;;;;;;;;5091001;28;20024;-76
2023/07/26 08:22:58;;;;;;;0.30;0.30;;;;;;;;;;5072890;28;20040;-74
2023/07/26 08:25:24;;;;;;;0.30;0.30;;;;;;;;;;5090840;28;20501;-73
2023/07/26 08:27:49;;;;;;;0.30;0.30;;;;;;;;;;5090966;28;20032;-73
2023/07/26 08:30:15;;;;;;;0.47;0.47;;;;;;;;;;5091240;28;20028;-73
2023/07/26 08:32:41;;;;;;;0.35;0.35;;;;;;;;;;5066276;28;20033;-73
2023/07/26 08:35:06;;;;;;;0.30;0.30;;;;;;;;;;5077166;28;20909;-72
2023/07/26 08:37:32;;;;;;;0.93;0.70;;;;;;;;;;5074008;28;20048;-75
2023/07/26 08:39:57;;;;;;;0.30;0.30;;;;;;;;;;5069746;28;20043;-72
2023/07/26 08:42:23;;;;;;;0.25;0.25;;;;;;;;;;5069775;28;20392;-72
2023/07/26 08:44:49;;;;;;;1.45;1.35;;;;;;;;;;5055200;28;20123;-73
2023/07/26 08:47:15;;;;;;;0.30;0.30;;;;;;;;;;5068755;28;20456;-73
2023/07/26 08:49:41;;;;;;;0.20;0.20;;;;;;;;;;5051877;28;20372;-72
2023/07/26 08:52:07;;;;;;;0.30;0.30;;;;;;;;;;5070026;28;20381;-74
2023/07/26 08:54:32;;;;;;;3.47;0.60;;;;;;;;;;5069694;28;20361;-73
2023/07/26 08:56:57;;;;;;;0.30;0.30;;;;;;;;;;5076627;28;20036;-75
2023/07/26 08:59:24;;;;;;;0.47;0.40;;;;;;;;;;5082823;28;20098;-74
2023/07/26 09:01:50;;;;;;;1.15;0.60;;;;;;;;;;5069760;28;20029;-74
2023/07/26 09:04:15;;;;;;;0.73;0.52;;;;;;;;;;5083469;28;20032;-74
2023/07/26 09:06:41;;;;;;;1.38;0.52;;;;;;;;;;5089161;28;20024;-71
2023/07/26 09:09:06;;;;;;;0.30;0.30;;;;;;;;;;5089266;28;20423;-74
2023/07/26 09:11:33;;;;;;;0.30;0.30;;;;;;;;;;5070683;28;20032;-74
2023/07/26 09:13:59;;;;;;;0.70;0.70;;;;;;;;;;5089663;28;20034;-72
2023/07/26 09:16:27;;;;;;;0.40;0.40;;;;;;;;;;5081189;28;20037;-73
2023/07/26 09:18:58;;;;;;;0.73;0.50;;;;;;;;;;5070023;28;20044;-72
2023/07/26 09:21:28;;;;;;;0.40;0.40;;;;;;;;;;5069237;28;20040;-72
2023/07/26 09:23:54;;;;;;;0.50;0.50;;;;;;;;;;5069316;28;20037;-72
2023/07/26 09:26:40;;;;;;;0.65;0.50;;;;;;;;;;5068002;28;20024;-70
2023/07/26 09:29:08;;;;;;;2.80;1.23;;;;;;;;;;5066693;28;20411;-72
2023/07/26 09:31:34;;;;;;;10.95;1.13;;;;;;;;;;5049883;28;20334;-71
2023/07/26 09:34:01;;;;;;;0.30;0.30;;;;;;;;;;5049050;28;20087;-71
2023/07/26 09:36:39;;;;;;;2.70;0.75;;;;;;;;;;5048679;28;20052;-70
2023/07/26 09:39:05;;;;;;;3.90;1.88;;;;;;;;;;5069243;28;20060;-71
2023/07/26 09:41:30;;;;;;;0.70;0.70;;;;;;;;;;5063310;28;20081;-72
2023/07/26 09:43:59;;;;;;;4.38;1.83;;;;;;;;;;5053552;28;20116;-77
2023/07/26 09:46:24;;;;;;;1.17;0.70;;;;;;;;;;5044423;28;20055;-77
2023/07/26 09:48:58;;;;;;;0.50;0.47;;;;;;;;;;5081100;28;20028;-77
2023/07/26 09:51:25;;;;;;;0.40;0.40;;;;;;;;;;5071530;28;20036;-78
2023/07/26 09:53:52;;;;;;;6.90;1.35;;;;;;;;;;5066476;28;20420;-81
2023/07/26 09:56:18;;;;;;;2.15;1.48;;;;;;;;;;5049109;28;20037;-77
2023/07/26 09:58:46;;;;;;;2.60;0.68;;;;;;;;;;5055947;28;20040;-78
2023/07/26 10:01:14;;;;;;;0.30;0.30;;;;;;;;;;5068458;28;20103;-80
2023/07/26 10:03:41;;;;;;;1.20;0.80;;;;;;;;;;5062327;28;20495;-80
2023/07/26 10:06:07;;;;;;;3.17;1.00;;;;;;;;;;5056811;28;20370;-78
2023/07/26 10:08:32;;;;;;;2.90;1.27;;;;;;;;;;5056990;28;20213;-78
2023/07/26 10:10:59;;;;;;;1.63;0.75;;;;;;;;;;5064410;28;20158;-78
2023/07/26 10:13:27;;;;;;;0.68;0.68;;;;;;;;;;5058336;28;20487;-78
2023/07/26 10:15:53;;;;;;;2.83;1.00;;;;;;;;;;5058225;28;20044;-76
2023/07/26 10:18:19;;;;;;;1.50;0.88;;;;;;;;;;5068114;28;20031;-76
2023/07/26 10:20:45;;;;;;;0.90;0.70;;;;;;;;;;5068210;28;20036;-76
2023/07/26 10:23:11;;;;;;;4.15;1.05;;;;;;;;;;5068031;28;20029;-74
2023/07/26 10:25:37;;;;;;;3.63;0.60;;;;;;;;;;5067921;28;20021;-74
2023/07/26 10:28:03;;;;;;;0.68;0.55;;;;;;;;;;5058125;28;20074;-74
2023/07/26 10:30:28;;;;;;;1.02;0.35;;;;;;;;;;5067700;28;20036;-77
2023/07/26 10:32:54;;;;;;;2.05;0.70;;;;;;;;;;5068129;28;20029;-77
2023/07/26 10:35:27;;;;;;;3.05;1.00;;;;;;;;;;5067320;28;20032;-77
2023/07/26 10:37:54;;;;;;;1.63;0.85;;;;;;;;;;5067911;28;20044;-77
2023/07/26 10:40:39;;;;;;;6.00;1.15;;;;;;;;;;5077304;28;20093;-75
2023/07/26 10:43:36;;;;;;;1.42;0.50;;;;;;;;;;5088693;28;20127;-81
2023/07/26 10:46:07;;;;;;;2.72;1.27;;;;;;;;;;5080248;28;20071;-79
2023/07/26 10:48:37;;;;;;;0.40;0.40;;;;;;;;;;5068329;28;20177;-78
2023/07/26 10:51:21;;;;;;;3.10;1.23;;;;;;;;;;5068371;28;20234;-77
2023/07/26 10:53:47;;;;;;;4.18;2.30;;;;;;;;;;5068036;28;20044;-76
2023/07/26 10:56:18;;;;;;;0.63;0.57;;;;;;;;;;5067917;28;20127;-77
2023/07/26 10:58:56;;;;;;;0.47;0.47;;;;;;;;;;5076786;28;20390;-78
2023/07/26 11:01:32;;;;;;;3.00;0.60;;;;;;;;;;5069563;28;20033;-78
2023/07/26 11:03:58;;;;;;;3.13;1.00;;;;;;;;;;5048176;28;20037;-77
2023/07/26 11:06:43;;;;;;;0.65;0.55;;;;;;;;;;5030458;28;20060;-76
2023/07/26 11:09:18;;;;;;;5.00;2.15;;;;;;;;;;5080309;28;20035;-75
2023/07/26 11:11:53;;;;;;;2.30;0.75;;;;;;;;;;5088139;28;20036;-74
2023/07/26 11:14:18;;;;;;;3.60;1.20;;;;;;;;;;5088049;28;20043;-75
2023/07/26 11:16:44;;;;;;;1.85;1.10;;;;;;;;;;5076371;28;20125;-74
2023/07/26 11:19:09;;;;;;;3.10;1.08;;;;;;;;;;5067983;28;20041;-76
2023/07/26 11:21:35;;;;;;;3.92;1.23;;;;;;;;;;5067905;28;20039;-79
2023/07/26 11:24:01;;;;;;;4.25;0.88;;;;;;;;;;5067735;28;20071;-77
2023/07/26 11:26:27;;;;;;;1.27;1.02;;;;;;;;;;5068113;28;20050;-75
2023/07/26 11:28:52;;;;;;;5.90;1.30;;;;;;;;;;5067581;28;20198;-78
2023/07/26 11:31:18;;;;;;;1.45;0.65;;;;;;;;;;5067467;28;20203;-75
2023/07/26 11:33:44;;;;;;;2.75;2.38;;;;;;;;;;5067772;28;20112;-79
2023/07/26 11:36:18;;;;;;;2.75;1.05;;;;;;;;;;5067352;28;20443;-76
2023/07/26 11:38:43;;;;;;;1.38;0.55;;;;;;;;;;5067676;28;20057;-77
2023/07/26 11:41:08;;;;;;;3.28;0.73;;;;;;;;;;5067553;28;20041;-77
2023/07/26 11:43:38;;;;;;;1.10;0.82;;;;;;;;;;5067320;28;20513;-78
2023/07/26 11:46:03;;;;;;;4.88;1.13;;;;;;;;;;5051519;28;20131;-78
2023/07/26 11:48:30;;;;;;;1.75;0.50;;;;;;;;;;5067842;28;20150;-78
2023/07/26 11:50:55;;;;;;;4.22;1.95;;;;;;;;;;5066333;28;20037;-77
2023/07/26 11:53:27;;;;;;;5.20;0.98;;;;;;;;;;5067657;28;20024;-74
2023/07/26 11:55:52;;;;;;;3.53;0.95;;;;;;;;;;5067441;28;20518;-74
2023/07/26 11:58:18;;;;;;;3.45;1.27;;;;;;;;;;5063686;28;20020;-74
2023/07/26 12:00:44;;;;;;;3.08;0.80;;;;;;;;;;5048497;28;20466;-81
2023/07/26 12:03:15;;;;;;;0.82;0.60;;;;;;;;;;5067115;28;20699;-81
2023/07/26 12:05:45;;;;;;;4.63;1.10;;;;;;;;;;5064983;28;20037;-80
2023/07/26 12:08:10;;;;;;;3.17;1.40;;;;;;;;;;5065578;28;20043;-81
2023/07/26 12:10:42;;;;;;;0.60;0.50;;;;;;;;;;5068793;28;20032;-81
2023/07/26 12:13:17;;;;;;;1.35;0.57;;;;;;;;;;5068664;28;20396;-81
2023/07/26 12:15:50;;;;;;;5.07;1.00;;;;;;;;;;5068646;28;20525;-81
2023/07/26 12:18:16;;;;;;;0.60;0.60;;;;;;;;;;5062019;28;20032;-82
2023/07/26 12:20:54;;;;;;;2.83;0.77;;;;;;;;;;5053259;28;20510;-82
2023/07/26 12:23:19;;;;;;;3.55;1.08;;;;;;;;;;5048501;28;20041;-81
2023/07/26 12:25:45;;;;;;;2.47;1.02;;;;;;;;;;5085309;28;20031;-79
2023/07/26 12:28:11;;;;;;;2.00;0.90;;;;;;;;;;5086106;28;20035;-80
2023/07/26 12:30:36;;;;;;;2.78;1.05;;;;;;;;;;5084573;28;20432;-80
2023/07/26 12:33:12;;;;;;;3.58;0.88;;;;;;;;;;5063676;28;20038;-80
2023/07/26 12:35:39;;;;;;;1.73;0.95;;;;;;;;;;5051080;28;20048;-80
2023/07/26 12:38:11;;;;;;;5.88;2.22;;;;;;;;;;5072158;28;20028;-79
2023/07/26 12:40:37;;;;;;;0.73;0.73;;;;;;;;;;5070295;28;20040;-80
2023/07/26 12:43:22;;;;;;;0.90;0.60;;;;;;;;;;5088114;28;20506;-80
2023/07/26 12:45:47;;;;;;;1.45;0.40;;;;;;;;;;5088753;28;20028;-80
2023/07/26 12:48:13;;;;;;;2.78;1.08;;;;;;;;;;5087863;28;20667;-80
2023/07/26 12:50:41;;;;;;;0.52;0.52;;;;;;;;;;5083335;28;20063;-80
2023/07/26 12:53:08;;;;;;;1.07;0.90;;;;;;;;;;5076948;28;20041;-80
2023/07/26 12:55:33;;;;;;;4.65;1.33;;;;;;;;;;5067707;28;20510;-82
2023/07/26 12:57:59;;;;;;;1.85;0.98;;;;;;;;;;5072488;28;20028;-81
2023/07/26 13:00:25;;;;;;;3.30;1.45;;;;;;;;;;5088445;28;20024;-81
2023/07/26 13:02:50;;;;;;;8.38;1.45;;;;;;;;;;5084058;28;20025;-80
2023/07/26 13:05:18;;;;;;;0.60;0.38;;;;;;;;;;5050039;28;20047;-80
2023/07/26 13:07:47;;;;;;;1.70;0.57;;;;;;;;;;5088141;28;20039;-80
2023/07/26 13:10:13;;;;;;;4.38;1.08;;;;;;;;;;5069691;28;20039;-81
2023/07/26 13:12:38;;;;;;;1.10;0.50;;;;;;;;;;5070152;28;20048;-80
2023/07/26 13:15:04;;;;;;;0.85;0.40;;;;;;;;;;5080960;28;20044;-81
2023/07/26 13:17:29;;;;;;;2.03;0.93;;;;;;;;;;5067307;28;20132;-81
2023/07/26 13:19:55;;;;;;;4.63;1.38;;;;;;;;;;5067661;28;20039;-80
2023/07/26 13:22:21;;;;;;;3.38;1.50;;;;;;;;;;5067516;28;20119;-81
2023/07/26 13:24:46;;;;;;;1.65;0.77;;;;;;;;;;5067381;28;20032;-81
2023/07/26 13:27:11;;;;;;;3.92;1.48;;;;;;;;;;5067531;28;20055;-81
2023/07/26 13:29:37;;;;;;;5.88;1.05;;;;;;;;;;5067447;28;20105;-80
2023/07/26 13:32:02;;;;;;;0.30;0.30;;;;;;;;;;5067590;28;20070;-81
2023/07/26 13:34:28;;;;;;;1.38;0.63;;;;;;;;;;5067724;28;20086;-80
2023/07/26 13:36:57;;;;;;;1.50;0.88;;;;;;;;;;5067882;28;20067;-80
2023/07/26 13:39:23;;;;;;;1.25;0.57;;;;;;;;;;5059866;28;20031;-80
2023/07/26 13:41:48;;;;;;;0.47;0.32;;;;;;;;;;5047527;28;20033;-80
2023/07/26 13:44:14;;;;;;;3.85;0.95;;;;;;;;;;5050583;28;20383;-79
2023/07/26 13:46:40;;;;;;;0.73;0.40;;;;;;;;;;5074609;28;20116;-79
2023/07/26 13:49:07;;;;;;;1.48;1.13;;;;;;;;;;5079417;28;20121;-79
2023/07/26 13:51:33;;;;;;;8.50;0.63;;;;;;;;;;5088144;28;20067;-80
2023/07/26 13:54:02;;;;;;;;;;;;;;;;;;5069576;28;20082;-81
2023/07/26 13:56:27;;;;;;;2.20;1.60;;;;;;;;;;5060849;28;19916;-80
2023/07/26 13:58:53;;;;;;;5.07;2.45;;;;;;;;;;5047214;28;20025;-79
2023/07/26 14:01:18;;;;;;;0.40;0.40;;;;;;;;;;5046955;28;20285;-80
2023/07/26 14:03:44;;;;;;;2.05;0.82;;;;;;;;;;5073498;28;20031;-81
2023/07/26 14:06:09;;;;;;;0.30;0.30;;;;;;;;;;5080672;28;20039;-81
2023/07/26 14:08:35;;;;;;;1.58;0.50;;;;;;;;;;5087412;28;20036;-79
2023/07/26 14:11:00;;;;;;;3.03;0.93;;;;;;;;;;5084202;28;20032;-81
2023/07/26 14:13:26;;;;;;;0.45;0.40;;;;;;;;;;5080723;28;20733;-80
2023/07/26 14:15:51;;;;;;;2.05;1.95;;;;;;;;;;5061499;28;20121;-79
2023/07/26 14:18:17;;;;;;;1.50;0.50;;;;;;;;;;5067771;28;20560;-80
2023/07/26 14:20:43;;;;;;;0.30;0.30;;;;;;;;;;5086898;28;20044;-81
2023/07/26 14:23:08;;;;;;;0.40;0.40;;;;;;;;;;5086438;28;20088;-81
2023/07/26 14:25:34;;;;;;;4.63;0.82;;;;;;;;;;5086971;28;20659;-80
2023/07/26 14:27:59;;;;;;;3.78;0.95;;;;;;;;;;5068786;28;20598;-80
2023/07/26 14:30:25;;;;;;;3.05;1.10;;;;;;;;;;5086533;28;20317;-81
2023/07/26 14:32:50;;;;;;;0.82;0.73;;;;;;;;;;5079648;28;20032;-81
2023/07/26 14:35:16;;;;;;;0.40;0.32;;;;;;;;;;5063736;28;20036;-81
2023/07/26 14:37:41;;;;;;;1.15;0.70;;;;;;;;;;5061935;28;20079;-81
2023/07/26 14:40:10;;;;;;;3.08;0.50;;;;;;;;;;5046699;28;20044;-79